Time;durP1;ratioP1;P1;durP2;ratioP2;P2;SDS_P1;SDS_P2;PMS_P1;PMS_P2;Temp;Humidity;BMP_temperature;BMP_pressure;BME280_temperature;BME280_humidity;BME280_pressure;Samples;Min_cycle;Max_cycle;Signal;HPM_P1;HPM_P2
2022/12/18 00:01:41;;;;;;;116.85;51.63;;;-3.10;99.90;;;;;;5133895;27;20058;-42
2022/12/18 00:04:14;;;;;;;131.07;55.53;;;-3.20;99.90;;;;;;5131246;27;20404;-42
2022/12/18 00:06:40;;;;;;;127.85;54.13;;;-3.20;99.90;;;;;;5117478;27;20096;-44
2022/12/18 00:09:05;;;;;;;137.45;55.08;;;-3.20;99.90;;;;;;5130889;27;20050;-42
2022/12/18 00:11:31;;;;;;;144.15;54.92;;;-3.10;99.90;;;;;;5125040;27;20046;-43
2022/12/18 00:13:59;;;;;;;144.77;57.83;;;-3.10;99.90;;;;;;5117877;27;20079;-44
2022/12/18 00:16:27;;;;;;;141.10;56.13;;;-3.20;99.90;;;;;;5126809;27;20058;-42
2022/12/18 00:18:55;;;;;;;139.20;57.38;;;-3.20;99.90;;;;;;5139085;27;20492;-41
2022/12/18 00:21:21;;;;;;;134.43;52.28;;;-3.20;99.90;;;;;;5128711;27;20046;-41
2022/12/18 00:23:48;;;;;;;126.43;49.92;;;-3.20;99.90;;;;;;5117658;27;20534;-45
2022/12/18 00:26:19;;;;;;;143.57;56.05;;;-3.10;99.90;;;;;;5127089;27;20518;-42
2022/12/18 00:28:45;;;;;;;132.23;51.55;;;-3.20;99.90;;;;;;5137649;27;20042;-42
2022/12/18 00:31:14;;;;;;;137.10;51.45;;;-3.20;99.90;;;;;;5137047;27;20070;-42
2022/12/18 00:33:40;;;;;;;148.25;53.88;;;-3.30;99.90;;;;;;5134179;27;20107;-43
2022/12/18 00:36:10;;;;;;;156.23;58.88;;;-3.30;99.90;;;;;;5116978;27;20147;-43
2022/12/18 00:38:36;;;;;;;153.02;55.38;;;-3.30;99.90;;;;;;5098601;27;20413;-43
2022/12/18 00:41:03;;;;;;;161.95;59.05;;;-3.30;99.90;;;;;;5116728;27;20054;-42
2022/12/18 00:43:29;;;;;;;140.23;56.03;;;-3.40;99.90;;;;;;5117443;27;20078;-46
2022/12/18 00:45:54;;;;;;;144.57;53.58;;;-3.40;99.90;;;;;;5117365;27;20180;-42
2022/12/18 00:48:21;;;;;;;147.13;53.65;;;-3.40;99.90;;;;;;5117103;27;20426;-43
2022/12/18 00:50:48;;;;;;;134.98;50.22;;;-3.40;99.90;;;;;;5117141;27;20165;-42
2022/12/18 00:53:13;;;;;;;144.43;51.88;;;-3.40;99.90;;;;;;5116987;27;20141;-42
2022/12/18 00:55:40;;;;;;;135.43;49.65;;;-3.40;99.90;;;;;;5125550;27;20053;-41
2022/12/18 00:58:05;;;;;;;136.13;48.33;;;-3.40;99.90;;;;;;5119883;27;20142;-41
2022/12/18 01:00:31;;;;;;;136.00;49.00;;;-3.50;99.90;;;;;;5117213;27;20047;-42
2022/12/18 01:02:57;;;;;;;131.15;50.70;;;-3.50;99.90;;;;;;5098496;27;20046;-42
2022/12/18 01:05:22;;;;;;;138.18;51.50;;;-3.50;99.90;;;;;;5116499;27;20060;-41
2022/12/18 01:07:48;;;;;;;133.32;51.42;;;-3.50;99.90;;;;;;5116997;27;20397;-43
2022/12/18 01:10:14;;;;;;;129.00;49.13;;;-3.40;99.90;;;;;;5116307;27;20046;-40
2022/12/18 01:12:40;;;;;;;139.25;51.60;;;-3.50;99.90;;;;;;5116648;27;20056;-42
2022/12/18 01:15:06;;;;;;;144.48;51.72;;;-3.50;99.90;;;;;;5117165;27;20047;-41
2022/12/18 01:17:32;;;;;;;141.98;51.33;;;-3.50;99.90;;;;;;5098868;27;20503;-41
2022/12/18 01:19:58;;;;;;;148.98;53.92;;;-3.60;99.90;;;;;;5117002;27;20134;-45
2022/12/18 01:22:24;;;;;;;140.73;51.85;;;-3.60;99.90;;;;;;5098841;27;20130;-41
2022/12/18 01:24:49;;;;;;;139.02;50.85;;;-3.50;99.90;;;;;;5116504;27;20047;-41
2022/12/18 01:27:15;;;;;;;141.50;51.45;;;-3.70;99.90;;;;;;5097167;27;20136;-42
2022/12/18 01:29:41;;;;;;;126.45;47.47;;;-3.70;99.90;;;;;;5126722;27;20043;-43
2022/12/18 01:32:07;;;;;;;130.23;46.47;;;-3.70;99.90;;;;;;5131949;27;20595;-41
2022/12/18 01:34:32;;;;;;;126.10;47.53;;;-3.80;99.90;;;;;;5097477;27;20073;-41
2022/12/18 01:36:58;;;;;;;120.38;43.42;;;-3.80;99.90;;;;;;5097894;27;20489;-41
2022/12/18 01:39:23;;;;;;;124.35;45.55;;;-3.80;99.90;;;;;;5116021;27;20062;-44
2022/12/18 01:42:02;;;;;;;124.53;46.90;;;-3.80;99.90;;;;;;5120308;27;20158;-41
2022/12/18 01:45:01;;;;;;;120.72;43.90;;;-3.80;99.90;;;;;;5104293;27;20061;-44
2022/12/18 01:47:44;;;;;;;118.60;43.45;;;-3.80;99.90;;;;;;5117112;27;20054;-41
2022/12/18 01:50:14;;;;;;;126.57;44.75;;;-3.90;99.90;;;;;;5122757;27;20046;-41
2022/12/18 01:52:43;;;;;;;116.25;45.45;;;-3.90;99.90;;;;;;5133467;27;20409;-43
2022/12/18 01:55:10;;;;;;;104.53;41.90;;;-3.90;99.90;;;;;;5096556;27;20090;-42
2022/12/18 01:57:37;;;;;;;129.65;44.45;;;-4.00;99.90;;;;;;5115787;27;20043;-42
2022/12/18 02:00:11;;;;;;;110.75;44.33;;;-4.00;99.90;;;;;;5097070;27;20541;-41
2022/12/18 02:02:37;;;;;;;;;;;-3.90;99.90;;;;;;5116448;27;20047;-43
2022/12/18 02:05:03;;;;;;;110.50;41.45;;;-4.00;99.90;;;;;;5107416;27;20003;-41
2022/12/18 02:07:43;;;;;;;123.75;46.17;;;-4.00;99.90;;;;;;5135270;27;20527;-43
2022/12/18 02:10:30;;;;;;;117.47;42.05;;;-4.00;99.90;;;;;;5116710;27;20073;-43
2022/12/18 02:13:05;;;;;;;138.15;46.13;;;-4.00;99.90;;;;;;5115877;27;20039;-42
2022/12/18 02:15:43;;;;;;;139.57;46.13;;;-3.90;99.90;;;;;;5115146;27;20058;-40
2022/12/18 02:18:14;;;;;;;124.88;46.63;;;-4.00;99.90;;;;;;5115361;27;20058;-41
2022/12/18 02:20:49;;;;;;;123.18;45.53;;;-4.00;99.90;;;;;;5115556;27;20051;-42
2022/12/18 02:23:48;;;;;;;131.52;51.03;;;-4.10;99.90;;;;;;5097121;27;20043;-41
2022/12/18 02:26:40;;;;;;;128.15;50.05;;;-4.00;99.90;;;;;;5115363;27;20103;-40
2022/12/18 02:29:17;;;;;;;115.38;42.90;;;-4.00;99.90;;;;;;5121312;27;20622;-42
2022/12/18 02:31:48;;;;;;;127.10;48.63;;;-4.00;99.90;;;;;;5136774;27;20180;-42
2022/12/18 02:34:17;;;;;;;119.60;51.08;;;-4.00;99.90;;;;;;5126817;27;20466;-44
2022/12/18 02:36:45;;;;;;;131.50;52.03;;;-4.00;99.90;;;;;;5111001;27;20059;-41
2022/12/18 02:39:13;;;;;;;118.13;49.38;;;-4.10;99.90;;;;;;5124761;27;20050;-41
2022/12/18 02:41:39;;;;;;;140.20;50.80;;;-4.10;99.90;;;;;;5122163;27;20055;-41
2022/12/18 02:44:11;;;;;;;142.27;55.67;;;-4.10;99.90;;;;;;5106879;27;20054;-41
2022/12/18 02:46:43;;;;;;;136.00;51.78;;;-4.20;99.90;;;;;;5129243;27;20096;-43
2022/12/18 02:49:30;;;;;;;142.07;54.40;;;-4.20;99.90;;;;;;5115097;27;20096;-44
2022/12/18 02:51:58;;;;;;;123.28;46.95;;;-4.10;99.90;;;;;;5116002;27;20135;-40
2022/12/18 02:54:32;;;;;;;130.18;53.60;;;-4.20;99.90;;;;;;5117867;27;20051;-43
2022/12/18 02:57:08;;;;;;;135.95;53.55;;;-4.20;99.90;;;;;;5115956;27;20066;-42
2022/12/18 02:59:59;;;;;;;131.95;56.05;;;-4.10;99.90;;;;;;5114461;27;20059;-41
2022/12/18 03:02:51;;;;;;;158.88;69.13;;;-4.20;99.90;;;;;;5096838;27;20059;-41
2022/12/18 03:05:40;;;;;;;140.45;52.78;;;-4.30;99.90;;;;;;5096205;28;20063;-43
2022/12/18 03:08:14;;;;;;;138.63;57.10;;;-4.30;99.90;;;;;;5010814;28;20080;-42
2022/12/18 03:10:43;;;;;;;;;;;-4.30;99.90;;;;;;5011666;28;20504;-43
2022/12/18 03:13:15;;;;;;;123.35;47.53;;;-4.40;99.90;;;;;;5017012;28;19935;-43
2022/12/18 03:15:52;;;;;;;132.13;49.70;;;-4.50;99.90;;;;;;4994333;28;20134;-40
2022/12/18 03:18:40;;;;;;;152.68;62.00;;;-4.40;99.90;;;;;;5011194;28;20050;-42
2022/12/18 03:21:10;;;;;;;159.88;62.60;;;-4.50;99.90;;;;;;5010719;28;20064;-42
2022/12/18 03:23:44;;;;;;;151.75;58.25;;;-4.50;99.90;;;;;;5011873;28;20847;-43
2022/12/18 03:26:15;;;;;;;138.32;56.10;;;-4.50;99.90;;;;;;5011509;28;20076;-44
2022/12/18 03:28:47;;;;;;;156.75;56.80;;;-4.50;99.90;;;;;;5025775;28;20067;-41
2022/12/18 03:31:14;;;;;;;159.98;62.60;;;-4.60;99.90;;;;;;5020997;28;20052;-41
2022/12/18 03:33:46;;;;;;;146.70;53.97;;;-4.70;99.90;;;;;;5030334;28;20045;-42
2022/12/18 03:36:12;;;;;;;117.67;45.97;;;-4.80;99.90;;;;;;5031030;28;20582;-41
2022/12/18 03:38:38;;;;;;;122.55;49.08;;;-4.70;99.90;;;;;;5026771;28;20303;-42
2022/12/18 03:41:31;;;;;;;116.65;48.85;;;-4.90;99.90;;;;;;5006533;28;20060;-42
2022/12/18 03:44:11;;;;;;;118.50;47.50;;;-4.80;99.90;;;;;;5030955;28;20099;-41
2022/12/18 03:46:59;;;;;;;117.65;48.88;;;-4.90;99.90;;;;;;5116174;27;20059;-43
2022/12/18 03:49:52;;;;;;;101.65;44.70;;;-4.90;99.90;;;;;;5114914;27;20043;-41
2022/12/18 03:52:37;;;;;;;133.98;52.70;;;-4.90;99.90;;;;;;5114615;27;20043;-43
2022/12/18 03:55:05;;;;;;;127.53;52.17;;;-4.90;99.90;;;;;;5118930;27;20307;-40
2022/12/18 03:57:32;;;;;;;144.98;58.15;;;-5.00;99.90;;;;;;5104431;27;20087;-41
2022/12/18 04:00:05;;;;;;;145.23;57.92;;;-5.00;99.90;;;;;;5114497;27;20047;-41
2022/12/18 04:02:33;;;;;;;128.10;52.50;;;-5.10;99.90;;;;;;5114254;27;20050;-42
2022/12/18 04:05:02;;;;;;;127.82;53.63;;;-5.10;99.90;;;;;;5114274;27;20055;-41
2022/12/18 04:07:29;;;;;;;108.95;46.35;;;-5.10;99.90;;;;;;5119264;27;20051;-43
2022/12/18 04:09:57;;;;;;;115.95;46.80;;;-5.10;99.90;;;;;;5118811;27;20043;-40
2022/12/18 04:12:28;;;;;;;124.63;53.13;;;-5.10;99.90;;;;;;5118833;27;20047;-41
2022/12/18 04:14:54;;;;;;;115.38;49.92;;;-5.10;99.90;;;;;;5117002;27;20158;-40
2022/12/18 04:17:20;;;;;;;116.95;49.88;;;-5.10;99.90;;;;;;5117817;27;20473;-39
2022/12/18 04:19:46;;;;;;;107.65;43.95;;;-5.20;99.90;;;;;;5117684;27;20115;-42
2022/12/18 04:22:12;;;;;;;88.35;42.83;;;-5.20;99.90;;;;;;5118349;27;20039;-41
2022/12/18 04:24:38;;;;;;;85.13;38.08;;;-5.30;99.90;;;;;;5117243;27;20126;-41
2022/12/18 04:27:04;;;;;;;82.55;38.63;;;-5.30;99.90;;;;;;5118418;27;20106;-41
2022/12/18 04:29:29;;;;;;;80.03;37.03;;;-5.30;99.90;;;;;;5127121;27;20046;-42
2022/12/18 04:31:55;;;;;;;87.18;38.78;;;-5.30;99.90;;;;;;5138857;27;20431;-40
2022/12/18 04:34:21;;;;;;;75.03;35.92;;;-5.30;99.90;;;;;;5138178;27;20074;-40
2022/12/18 04:36:46;;;;;;;77.75;38.10;;;-5.40;99.90;;;;;;5125619;27;20043;-43
2022/12/18 04:39:12;;;;;;;80.68;37.22;;;-5.30;99.90;;;;;;5138478;27;20093;-41
2022/12/18 04:41:38;;;;;;;75.20;37.75;;;-5.40;99.90;;;;;;5122513;27;20068;-40
2022/12/18 04:44:04;;;;;;;82.00;36.97;;;-5.30;99.90;;;;;;5118049;27;20054;-40
2022/12/18 04:46:30;;;;;;;76.10;36.85;;;-5.40;99.90;;;;;;5120790;27;20046;-43
2022/12/18 04:48:55;;;;;;;74.10;35.47;;;-5.30;99.90;;;;;;5129133;27;20043;-41
2022/12/18 04:51:21;;;;;;;74.35;36.33;;;-5.30;99.90;;;;;;5120861;27;20046;-40
2022/12/18 04:53:47;;;;;;;72.05;34.33;;;-5.40;99.90;;;;;;5133751;27;20447;-41
2022/12/18 04:56:14;;;;;;;71.68;33.35;;;-5.50;99.90;;;;;;5127311;27;20552;-41
2022/12/18 04:58:42;;;;;;;72.32;35.00;;;-5.50;99.90;;;;;;5137854;27;20042;-40
2022/12/18 05:01:09;;;;;;;70.68;33.42;;;-5.50;99.90;;;;;;5109002;27;20076;-41
2022/12/18 05:03:36;;;;;;;72.88;31.95;;;-5.50;99.90;;;;;;5114861;27;20053;-42
2022/12/18 05:06:02;;;;;;;72.55;32.25;;;-5.50;99.90;;;;;;5115834;27;20051;-42
2022/12/18 05:08:28;;;;;;;72.90;32.10;;;-5.60;99.90;;;;;;5117433;27;20047;-44
2022/12/18 05:11:09;;;;;;;62.92;32.13;;;-5.60;99.90;;;;;;5111818;27;20541;-40
2022/12/18 05:13:35;;;;;;;71.95;33.00;;;-5.60;99.90;;;;;;5129869;27;20302;-43
2022/12/18 05:16:02;;;;;;;69.90;33.15;;;-5.60;99.90;;;;;;5116924;27;20063;-40
2022/12/18 05:18:28;;;;;;;71.45;33.63;;;-5.60;99.90;;;;;;5117163;27;20563;-42
2022/12/18 05:20:54;;;;;;;64.60;31.02;;;-5.60;99.90;;;;;;5116826;27;20154;-41
2022/12/18 05:23:21;;;;;;;70.13;32.33;;;-5.70;99.90;;;;;;5130767;27;20042;-39
2022/12/18 05:25:52;;;;;;;66.47;33.67;;;-5.70;99.90;;;;;;5137687;27;20129;-41
2022/12/18 05:28:18;;;;;;;69.82;33.88;;;-5.70;99.90;;;;;;5123866;27;20169;-40
2022/12/18 05:30:51;;;;;;;68.18;31.77;;;-5.70;99.90;;;;;;5136647;27;20042;-41
2022/12/18 05:33:18;;;;;;;65.38;31.33;;;-5.70;99.90;;;;;;5137623;27;20053;-42
2022/12/18 05:35:44;;;;;;;65.18;30.92;;;-5.70;99.90;;;;;;5118440;27;20050;-42
2022/12/18 05:38:09;;;;;;;66.65;34.08;;;-5.70;99.90;;;;;;5137108;27;20466;-40
2022/12/18 05:40:36;;;;;;;68.30;31.83;;;-5.60;99.90;;;;;;5116517;27;20043;-42
2022/12/18 05:43:02;;;;;;;67.03;31.30;;;-5.70;99.90;;;;;;5116383;27;20074;-41
2022/12/18 05:45:27;;;;;;;63.15;30.70;;;-5.70;99.90;;;;;;5116389;27;20131;-41
2022/12/18 05:47:53;;;;;;;65.05;30.38;;;-5.70;99.90;;;;;;5098423;27;20129;-40
2022/12/18 05:50:19;;;;;;;65.72;32.05;;;-5.70;99.90;;;;;;5116262;27;20389;-41
2022/12/18 05:52:44;;;;;;;59.95;31.35;;;-5.70;99.90;;;;;;5125762;27;20043;-41
2022/12/18 05:55:10;;;;;;;64.20;30.20;;;-5.80;99.90;;;;;;5120766;27;20089;-41
2022/12/18 05:57:35;;;;;;;67.53;31.65;;;-5.80;99.90;;;;;;5104317;27;20055;-39
2022/12/18 06:00:02;;;;;;;61.65;29.90;;;-5.80;99.90;;;;;;5123217;27;20050;-45
2022/12/18 06:02:28;;;;;;;60.20;28.88;;;-5.90;99.90;;;;;;5103487;27;20054;-40
2022/12/18 06:04:54;;;;;;;63.28;30.88;;;-5.90;99.90;;;;;;5115966;27;20614;-40
2022/12/18 06:07:19;;;;;;;55.88;27.33;;;-5.90;99.90;;;;;;5116541;27;20062;-42
2022/12/18 06:09:45;;;;;;;63.78;29.23;;;-5.90;99.90;;;;;;5116443;27;20133;-41
2022/12/18 06:12:10;;;;;;;60.17;28.75;;;-5.90;99.90;;;;;;5116060;27;20047;-39
2022/12/18 06:14:36;;;;;;;62.58;29.75;;;-5.90;99.90;;;;;;5122776;27;20142;-40
2022/12/18 06:17:02;;;;;;;54.42;26.98;;;-5.90;99.90;;;;;;5121604;27;20047;-42
2022/12/18 06:19:27;;;;;;;61.42;29.70;;;-5.90;99.90;;;;;;5096955;27;20051;-44
2022/12/18 06:21:53;;;;;;;59.63;30.20;;;-5.90;99.90;;;;;;5115554;27;20061;-41
2022/12/18 06:24:18;;;;;;;60.58;29.85;;;-5.90;99.90;;;;;;5114615;27;20124;-41
2022/12/18 06:26:44;;;;;;;58.90;27.98;;;-5.80;99.90;;;;;;5115980;27;20039;-41
2022/12/18 06:29:10;;;;;;;53.90;27.77;;;-5.80;99.90;;;;;;5121895;27;20479;-40
2022/12/18 06:31:35;;;;;;;55.72;25.77;;;-5.80;99.90;;;;;;5136175;27;20045;-42
2022/12/18 06:34:03;;;;;;;54.65;28.23;;;-5.80;99.90;;;;;;5121620;27;20153;-41
2022/12/18 06:36:29;;;;;;;52.58;25.45;;;-5.80;99.90;;;;;;5136257;27;20053;-40
2022/12/18 06:38:57;;;;;;;48.60;24.95;;;-5.80;99.90;;;;;;5115758;27;20508;-42
2022/12/18 06:41:23;;;;;;;54.00;25.45;;;-5.90;99.90;;;;;;5115737;27;20062;-40
2022/12/18 06:43:49;;;;;;;52.10;26.63;;;-5.90;99.90;;;;;;5114814;27;20047;-40
2022/12/18 06:46:15;;;;;;;55.08;25.85;;;-5.90;99.90;;;;;;5129670;27;20071;-40
2022/12/18 06:48:40;;;;;;;55.00;27.23;;;-6.00;99.90;;;;;;5135738;27;20312;-42
2022/12/18 06:51:06;;;;;;;47.35;24.90;;;-6.00;99.90;;;;;;5135414;27;20123;-42
2022/12/18 06:53:32;;;;;;;52.42;26.33;;;-6.00;99.90;;;;;;5114320;27;20054;-41
2022/12/18 06:56:03;;;;;;;54.25;26.55;;;-6.00;99.90;;;;;;5118585;27;20412;-39
2022/12/18 06:58:29;;;;;;;50.85;26.13;;;-6.00;99.90;;;;;;5123067;27;20054;-42
2022/12/18 07:01:00;;;;;;;49.15;24.55;;;-6.10;99.90;;;;;;5122174;27;20051;-40
2022/12/18 07:03:26;;;;;;;50.30;25.58;;;-6.10;99.90;;;;;;5127265;27;20474;-41
2022/12/18 07:05:52;;;;;;;48.63;24.27;;;-6.10;99.90;;;;;;5099399;27;20054;-45
2022/12/18 07:08:17;;;;;;;52.25;24.10;;;-6.10;99.90;;;;;;5127176;27;20047;-40
2022/12/18 07:10:44;;;;;;;50.80;24.38;;;-6.10;99.90;;;;;;5129448;27;20050;-39
2022/12/18 07:13:10;;;;;;;50.42;23.98;;;-6.10;99.90;;;;;;5106413;27;20050;-41
2022/12/18 07:15:35;;;;;;;42.92;23.40;;;-6.10;99.90;;;;;;5122373;27;20500;-41
2022/12/18 07:18:01;;;;;;;43.30;21.52;;;-6.10;99.90;;;;;;5118582;27;20369;-40
2022/12/18 07:20:27;;;;;;;47.40;24.02;;;-6.10;99.90;;;;;;5098629;27;20039;-42
2022/12/18 07:22:52;;;;;;;47.20;22.98;;;-6.10;99.90;;;;;;5135880;27;20046;-41
2022/12/18 07:25:18;;;;;;;46.42;24.42;;;-6.10;99.90;;;;;;5121628;27;20056;-40
2022/12/18 07:27:43;;;;;;;40.45;22.25;;;-6.20;99.90;;;;;;5136189;27;20043;-41
2022/12/18 07:30:10;;;;;;;43.78;21.77;;;-6.10;99.90;;;;;;5134487;27;20045;-41
2022/12/18 07:32:35;;;;;;;43.47;23.52;;;-6.10;99.90;;;;;;5135988;27;20047;-43
2022/12/18 07:35:01;;;;;;;46.70;22.88;;;-6.10;99.90;;;;;;5116049;27;20139;-43
2022/12/18 07:37:27;;;;;;;47.42;24.83;;;-6.00;99.90;;;;;;5118369;27;20051;-42
2022/12/18 07:39:52;;;;;;;44.97;23.98;;;-6.00;99.90;;;;;;5121163;27;20047;-43
2022/12/18 07:42:30;;;;;;;47.65;24.33;;;-6.00;99.90;;;;;;5119291;27;20366;-40
2022/12/18 07:44:56;;;;;;;46.03;23.73;;;-5.90;99.90;;;;;;5122429;27;20526;-40
2022/12/18 07:47:22;;;;;;;46.10;22.98;;;-5.90;99.90;;;;;;5128844;27;20618;-42
2022/12/18 07:49:47;;;;;;;43.38;22.27;;;-5.90;99.90;;;;;;5117976;27;20223;-44
2022/12/18 07:52:13;;;;;;;44.45;21.40;;;-5.90;99.90;;;;;;5118789;27;20039;-42
2022/12/18 07:54:40;;;;;;;46.65;24.42;;;-5.90;99.90;;;;;;5118317;27;20103;-42
2022/12/18 07:57:06;;;;;;;43.50;23.70;;;-5.80;99.90;;;;;;5119577;27;20083;-41
2022/12/18 07:59:31;;;;;;;44.78;23.13;;;-5.80;99.90;;;;;;5137251;27;20153;-41
2022/12/18 08:01:58;;;;;;;41.30;22.08;;;-5.70;99.90;;;;;;5139426;27;20394;-43
2022/12/18 08:04:24;;;;;;;49.08;22.98;;;-5.70;99.90;;;;;;5102549;27;20694;-41
2022/12/18 08:06:50;;;;;;;43.55;23.60;;;-5.60;99.90;;;;;;5127602;27;20513;-41
2022/12/18 08:09:16;;;;;;;42.53;23.33;;;-5.60;99.90;;;;;;5104653;27;20042;-42
2022/12/18 08:11:42;;;;;;;46.92;22.63;;;-5.60;99.90;;;;;;5136049;27;20057;-41
2022/12/18 08:14:07;;;;;;;43.17;22.70;;;-5.50;99.90;;;;;;5131736;27;20310;-42
2022/12/18 08:16:33;;;;;;;45.35;24.65;;;-5.50;99.90;;;;;;5119244;27;20047;-41
2022/12/18 08:18:59;;;;;;;46.33;23.88;;;-5.40;99.90;;;;;;5119189;27;20039;-41
2022/12/18 08:21:30;;;;;;;43.92;22.85;;;-5.40;99.90;;;;;;5118664;27;20043;-42
2022/12/18 08:23:58;;;;;;;42.83;23.40;;;-5.30;99.90;;;;;;5099718;27;20524;-40
2022/12/18 08:26:26;;;;;;;44.40;24.13;;;-5.30;99.90;;;;;;5100386;27;20970;-40
2022/12/18 08:28:54;;;;;;;48.45;22.63;;;-5.30;99.90;;;;;;5122708;27;20579;-42
2022/12/18 08:31:20;;;;;;;45.25;23.40;;;-5.20;99.90;;;;;;5139085;27;20047;-42
2022/12/18 08:33:47;;;;;;;39.42;22.50;;;-5.20;99.90;;;;;;5133844;27;20043;-40
2022/12/18 08:36:13;;;;;;;41.10;22.23;;;-5.10;99.90;;;;;;5118234;27;20039;-42
2022/12/18 08:38:38;;;;;;;41.50;21.35;;;-5.00;99.90;;;;;;5122735;27;20353;-41
2022/12/18 08:41:10;;;;;;;40.03;21.55;;;-5.00;99.90;;;;;;5138884;27;20185;-42
2022/12/18 08:46:22;;;;;;;41.70;20.33;;;-4.90;99.90;;;;;;5117576;27;20074;-42
2022/12/18 08:48:50;;;;;;;43.03;22.58;;;-4.80;99.90;;;;;;5091080;27;20054;-43
2022/12/18 08:51:17;;;;;;;38.58;21.35;;;-4.80;99.90;;;;;;5137623;27;20055;-40
2022/12/18 08:53:44;;;;;;;41.30;21.13;;;-4.70;99.90;;;;;;5124471;27;20046;-40
2022/12/18 08:56:10;;;;;;;35.95;19.50;;;-4.70;99.90;;;;;;5128577;27;20053;-41
2022/12/18 08:58:35;;;;;;;36.10;19.20;;;-4.60;99.90;;;;;;5117479;27;20043;-41
2022/12/18 09:01:03;;;;;;;35.72;21.23;;;-4.50;99.90;;;;;;5119914;27;20050;-40
2022/12/18 09:03:29;;;;;;;38.08;21.60;;;-4.50;99.90;;;;;;5138629;27;20043;-44
2022/12/18 09:05:54;;;;;;;38.05;21.05;;;-4.40;99.90;;;;;;5138931;27;20410;-41
2022/12/18 09:08:20;;;;;;;35.90;19.55;;;-4.40;99.90;;;;;;5138204;27;20060;-41
2022/12/18 09:10:48;;;;;;;33.38;19.77;;;-4.30;99.90;;;;;;5121587;27;20062;-41
2022/12/18 09:13:15;;;;;;;36.70;19.98;;;-4.30;99.90;;;;;;5117048;27;20447;-44
2022/12/18 09:15:42;;;;;;;34.97;20.10;;;-4.10;99.90;;;;;;5098910;27;20047;-42
2022/12/18 09:18:09;;;;;;;31.45;17.33;;;-4.10;99.90;;;;;;5117085;27;20054;-42
2022/12/18 09:20:36;;;;;;;30.48;18.70;;;-4.00;99.90;;;;;;5120782;27;20401;-44
2022/12/18 09:23:02;;;;;;;33.38;20.73;;;-3.90;99.90;;;;;;5118368;27;20035;-43
2022/12/18 09:25:32;;;;;;;33.40;19.23;;;-3.80;99.90;;;;;;5119770;27;20065;-41
2022/12/18 09:27:59;;;;;;;29.38;18.63;;;-3.70;99.90;;;;;;5119436;27;20101;-40
2022/12/18 09:30:26;;;;;;;31.33;18.60;;;-3.60;99.90;;;;;;5133113;27;20055;-45
2022/12/18 09:32:52;;;;;;;30.35;19.17;;;-3.60;99.90;;;;;;5099269;27;20058;-41
2022/12/18 09:35:17;;;;;;;34.30;18.00;;;-3.50;99.90;;;;;;5134289;27;20050;-44
2022/12/18 09:37:43;;;;;;;31.60;18.98;;;-3.40;99.90;;;;;;5137839;27;20047;-41
2022/12/18 09:40:20;;;;;;;29.15;16.88;;;-3.30;99.90;;;;;;5123441;27;20508;-44
2022/12/18 09:42:53;;;;;;;31.35;18.25;;;-3.30;99.90;;;;;;5125128;27;20370;-41
2022/12/18 09:45:19;;;;;;;25.58;16.05;;;-3.20;99.90;;;;;;5116633;27;20115;-41
2022/12/18 09:47:48;;;;;;;26.15;17.05;;;-3.10;99.90;;;;;;5112166;27;20523;-43
2022/12/18 09:50:35;;;;;;;30.52;17.17;;;-3.10;99.90;;;;;;5116327;27;20049;-41
2022/12/18 09:53:06;;;;;;;26.13;16.63;;;-3.10;99.90;;;;;;5115351;27;20078;-43
2022/12/18 09:55:38;;;;;;;24.95;16.70;;;-3.10;99.90;;;;;;5096921;27;20485;-41
2022/12/18 09:58:34;;;;;;;25.23;15.60;;;-3.00;99.90;;;;;;5111836;27;20054;-42
2022/12/18 10:01:00;;;;;;;27.83;16.30;;;-3.00;99.90;;;;;;5110159;27;20435;-42
2022/12/18 10:03:26;;;;;;;38.90;25.25;;;-3.00;99.90;;;;;;5114834;27;20043;-42
2022/12/18 10:06:11;;;;;;;26.00;17.15;;;-3.00;99.90;;;;;;5129218;27;20058;-41
2022/12/18 10:09:01;;;;;;;39.15;24.88;;;-3.10;99.90;;;;;;5134064;27;20102;-42
2022/12/18 10:11:55;;;;;;;29.20;17.73;;;-3.10;99.90;;;;;;5122872;27;20038;-41
2022/12/18 10:14:40;;;;;;;33.47;20.05;;;-3.10;99.90;;;;;;5111008;27;20059;-42
2022/12/18 10:17:32;;;;;;;31.23;18.95;;;-3.20;99.90;;;;;;5132102;27;20097;-43
2022/12/18 10:20:33;;;;;;;27.42;18.30;;;-3.20;99.90;;;;;;5131941;27;20133;-42
2022/12/18 10:23:15;;;;;;;26.67;15.73;;;-3.10;99.90;;;;;;5115812;27;20425;-45
2022/12/18 10:25:58;;;;;;;22.73;15.02;;;-3.20;99.90;;;;;;5115969;27;20191;-43
2022/12/18 10:28:25;;;;;;;27.30;20.13;;;-3.10;99.90;;;;;;5111481;27;20125;-41
2022/12/18 10:30:51;;;;;;;25.33;16.92;;;-3.00;99.90;;;;;;5115388;27;20063;-41
2022/12/18 10:33:23;;;;;;;24.48;18.70;;;-2.90;99.90;;;;;;5127160;27;20047;-41
2022/12/18 10:35:52;;;;;;;23.23;15.63;;;-2.80;99.90;;;;;;5128827;27;20051;-41
2022/12/18 10:38:17;;;;;;;23.05;15.13;;;-2.80;99.90;;;;;;5128794;27;20052;-44
2022/12/18 10:40:59;;;;;;;22.05;14.45;;;-2.80;99.90;;;;;;5097974;27;20054;-40
2022/12/18 10:43:29;;;;;;;21.15;14.38;;;-2.70;99.90;;;;;;5119801;27;20042;-41
2022/12/18 10:46:17;;;;;;;21.42;14.75;;;-2.60;99.90;;;;;;5127971;27;20058;-41
2022/12/18 10:48:54;;;;;;;20.70;14.43;;;-2.60;99.90;;;;;;5121953;27;20118;-41
2022/12/18 10:51:35;;;;;;;18.75;13.48;;;-2.50;99.90;;;;;;5118757;27;20831;-40
2022/12/18 10:54:12;;;;;;;20.45;13.93;;;-2.40;99.90;;;;;;5116199;27;20039;-41
2022/12/18 10:56:38;;;;;;;19.50;13.32;;;-2.40;99.90;;;;;;5096369;27;20047;-40
2022/12/18 10:59:06;;;;;;;22.13;14.48;;;-2.40;99.90;;;;;;5096659;28;20094;-42
2022/12/18 11:01:54;;;;;;;19.10;13.20;;;-2.40;99.90;;;;;;5098226;28;20066;-43
2022/12/18 11:04:21;;;;;;;23.13;15.27;;;-2.30;99.90;;;;;;5114814;27;20074;-41
2022/12/18 11:06:55;;;;;;;21.13;13.52;;;-2.30;99.90;;;;;;5115714;27;20047;-40
2022/12/18 11:09:35;;;;;;;20.70;14.38;;;-2.30;99.90;;;;;;5114894;27;20082;-41
2022/12/18 11:12:15;;;;;;;22.67;14.55;;;-2.20;99.90;;;;;;5126854;27;20123;-42
2022/12/18 11:14:55;;;;;;;25.05;15.25;;;-2.20;99.90;;;;;;5120983;27;20043;-41
2022/12/18 11:17:35;;;;;;;23.20;15.98;;;-2.10;99.90;;;;;;5135338;27;20469;-42
2022/12/18 11:20:06;;;;;;;24.55;16.60;;;-2.10;99.90;;;;;;5123335;27;20066;-43
2022/12/18 11:22:34;;;;;;;25.63;17.65;;;-2.00;99.90;;;;;;5137875;27;20504;-43
2022/12/18 11:25:05;;;;;;;24.77;14.45;;;-2.10;99.90;;;;;;5138643;27;20571;-41
2022/12/18 11:27:31;;;;;;;26.17;15.60;;;-2.00;99.90;;;;;;5131518;27;20164;-43
2022/12/18 11:30:23;;;;;;;27.58;17.45;;;-2.00;99.90;;;;;;5132282;27;20216;-44
2022/12/18 11:32:56;;;;;;;28.40;16.05;;;-2.00;99.90;;;;;;5128058;27;20046;-44
2022/12/18 11:35:36;;;;;;;28.10;17.13;;;-1.90;99.90;;;;;;5121019;27;20074;-42
2022/12/18 11:38:20;;;;;;;25.55;15.65;;;-2.00;99.90;;;;;;5130260;27;20345;-42
2022/12/18 11:40:51;;;;;;;24.77;16.15;;;-1.90;99.90;;;;;;5118363;27;20043;-45
2022/12/18 11:43:39;;;;;;;28.55;17.27;;;-1.90;99.90;;;;;;5120447;27;20068;-42
2022/12/18 11:46:16;;;;;;;26.88;16.45;;;-1.90;99.90;;;;;;5126593;27;20417;-42
2022/12/18 11:48:54;;;;;;;24.40;15.23;;;-1.80;99.90;;;;;;5124922;27;20042;-42
2022/12/18 11:51:34;;;;;;;21.33;14.15;;;-1.80;99.90;;;;;;5122883;27;20391;-42
2022/12/18 11:54:08;;;;;;;22.02;15.18;;;-1.70;99.90;;;;;;5118862;27;20671;-42
2022/12/18 11:56:39;;;;;;;20.00;13.80;;;-1.70;99.90;;;;;;5125258;27;20628;-44
2022/12/18 11:59:30;;;;;;;16.95;12.65;;;-1.60;99.90;;;;;;5126452;27;20038;-44
2022/12/18 12:02:31;;;;;;;16.92;11.95;;;-1.60;99.90;;;;;;5123023;27;20520;-44
2022/12/18 12:05:13;;;;;;;17.52;11.93;;;-1.60;99.90;;;;;;5118735;27;20055;-42
2022/12/18 12:07:48;;;;;;;17.00;11.73;;;-1.60;99.90;;;;;;5101683;27;20569;-42
2022/12/18 12:10:30;;;;;;;15.60;10.00;;;-1.60;99.90;;;;;;5112021;27;20062;-41
2022/12/18 12:13:10;;;;;;;16.10;10.90;;;-1.60;99.90;;;;;;5125049;27;20047;-42
2022/12/18 12:15:45;;;;;;;17.05;11.40;;;-1.50;99.90;;;;;;5132400;27;20099;-42
2022/12/18 12:18:32;;;;;;;15.73;10.52;;;-1.50;99.90;;;;;;5118296;27;20050;-43
2022/12/18 12:21:09;;;;;;;12.48;9.00;;;-1.50;99.90;;;;;;5102944;27;20051;-41
2022/12/18 12:24:02;;;;;;;14.85;9.90;;;-1.50;99.90;;;;;;5116788;27;20398;-42
2022/12/18 12:26:42;;;;;;;14.85;9.63;;;-1.40;99.90;;;;;;5117543;27;20047;-43
2022/12/18 12:29:20;;;;;;;13.80;9.32;;;-1.40;99.90;;;;;;5123439;27;20050;-43
2022/12/18 12:32:06;;;;;;;14.23;9.60;;;-1.40;99.90;;;;;;5111355;27;20047;-44
2022/12/18 12:34:50;;;;;;;13.57;9.45;;;-1.30;99.90;;;;;;5121468;27;20130;-42
2022/12/18 12:37:22;;;;;;;13.18;9.20;;;-1.30;99.90;;;;;;5117561;27;20545;-44
2022/12/18 12:39:48;;;;;;;12.02;8.60;;;-1.30;99.90;;;;;;5117892;27;20065;-43
2022/12/18 12:45:33;;;;;;;16.17;9.63;;;-1.30;99.90;;;;;;5116619;27;20515;-42
2022/12/18 12:48:02;;;;;;;13.52;9.38;;;-1.20;99.90;;;;;;5118173;27;20046;-42
2022/12/18 12:50:33;;;;;;;12.80;9.35;;;-1.20;99.90;;;;;;5127586;27;20462;-42